Time;durP1;ratioP1;P1;durP2;ratioP2;P2;SDS_P1;SDS_P2;PMS_P1;PMS_P2;Temp;Humidity;BMP_temperature;BMP_pressure;BME280_temperature;BME280_humidity;BME280_pressure;Samples;Min_cycle;Max_cycle;Signal;HPM_P1;HPM_P2
2022/01/19 00:00:27;;;;;;;9.18;5.28;;;28.90;81.30;;;;;;5066201;28;20056;-56
2022/01/19 00:02:54;;;;;;;10.32;5.75;;;28.90;81.30;;;;;;5066731;28;20099;-57
2022/01/19 00:05:21;;;;;;;17.13;6.18;;;28.80;81.30;;;;;;5060698;28;20296;-53
2022/01/19 00:07:47;;;;;;;13.20;6.15;;;28.80;81.50;;;;;;5060272;28;20082;-54
2022/01/19 00:10:19;;;;;;;14.30;5.97;;;28.80;81.70;;;;;;5065687;28;20066;-48
2022/01/19 00:12:45;;;;;;;15.25;9.93;;;28.80;81.50;;;;;;5060773;28;20238;-58
2022/01/19 00:15:13;;;;;;;16.20;6.40;;;28.80;81.60;;;;;;5066364;28;20029;-54
2022/01/19 00:17:40;;;;;;;11.00;6.55;;;28.70;81.60;;;;;;5065823;28;20177;-48
2022/01/19 00:20:08;;;;;;;10.52;5.90;;;28.80;81.80;;;;;;5066692;28;20095;-54
2022/01/19 00:22:37;;;;;;;10.60;5.95;;;28.70;81.60;;;;;;5048663;28;20310;-52
2022/01/19 00:25:05;;;;;;;10.48;5.78;;;28.70;81.40;;;;;;5048538;28;20032;-53
2022/01/19 00:27:31;;;;;;;13.55;5.18;;;28.70;81.40;;;;;;5063188;28;20051;-53
2022/01/19 00:29:58;;;;;;;25.95;23.23;;;28.60;81.30;;;;;;5073683;28;20032;-53
2022/01/19 00:32:26;;;;;;;40.95;36.83;;;28.60;81.40;;;;;;5070573;28;20033;-57
2022/01/19 00:34:54;;;;;;;16.08;13.35;;;28.60;81.50;;;;;;5064848;28;20017;-54
2022/01/19 00:37:20;;;;;;;13.23;8.13;;;28.60;81.80;;;;;;5065766;28;20029;-53
2022/01/19 00:39:47;;;;;;;13.00;6.97;;;28.60;81.70;;;;;;5084426;28;20020;-52
2022/01/19 00:42:13;;;;;;;12.48;6.18;;;28.60;81.70;;;;;;5083846;28;20032;-54
2022/01/19 00:44:40;;;;;;;8.55;5.32;;;28.60;81.70;;;;;;5085215;28;20306;-52
2022/01/19 00:47:07;;;;;;;10.23;5.13;;;28.50;81.60;;;;;;5066197;28;20098;-53
2022/01/19 00:49:35;;;;;;;10.02;4.78;;;28.50;82.00;;;;;;5085024;28;20035;-52
2022/01/19 00:52:01;;;;;;;9.93;5.20;;;28.50;81.90;;;;;;5085893;28;20028;-55
2022/01/19 00:54:28;;;;;;;9.88;4.82;;;28.50;82.00;;;;;;5085081;28;20101;-55
2022/01/19 00:56:55;;;;;;;8.95;4.63;;;28.50;82.10;;;;;;5085765;28;20024;-52
2022/01/19 00:59:23;;;;;;;11.93;5.03;;;28.50;82.10;;;;;;5055153;28;20318;-47
2022/01/19 01:01:49;;;;;;;9.07;4.90;;;28.50;82.10;;;;;;5072368;28;20088;-50
2022/01/19 01:04:16;;;;;;;8.52;4.60;;;28.50;82.30;;;;;;5070613;28;20021;-51
2022/01/19 01:06:44;;;;;;;11.93;5.40;;;28.50;82.10;;;;;;5047885;28;20321;-51
2022/01/19 01:09:11;;;;;;;8.25;5.00;;;28.50;82.20;;;;;;5058165;28;20159;-53
2022/01/19 01:11:47;;;;;;;10.15;6.43;;;28.50;82.10;;;;;;5045214;28;20025;-49
2022/01/19 01:17:09;;;;;;;15.73;5.78;;;28.40;82.10;;;;;;5045789;28;20093;-51
2022/01/19 01:19:37;;;;;;;15.45;8.90;;;28.40;82.00;;;;;;5031605;28;20036;-50
2022/01/19 01:22:04;;;;;;;16.88;8.48;;;28.40;82.00;;;;;;5044823;28;20026;-51
2022/01/19 01:24:32;;;;;;;14.10;6.85;;;28.40;81.90;;;;;;5045284;28;20025;-58
2022/01/19 01:26:58;;;;;;;12.45;5.95;;;28.40;81.80;;;;;;5045422;28;20093;-53
2022/01/19 01:29:27;;;;;;;7.28;5.38;;;28.40;81.80;;;;;;5040537;28;20072;-59
2022/01/19 01:31:55;;;;;;;8.40;4.63;;;28.40;81.90;;;;;;5045391;28;20025;-55
2022/01/19 20:20:59;;;;;;;7.63;5.60;;;28.50;74.80;;;;;;5121674;27;20433;-54
2022/01/19 20:23:27;;;;;;;9.52;5.57;;;28.60;76.50;;;;;;5122821;28;20385;-53
2022/01/19 20:25:57;;;;;;;7.85;5.00;;;28.60;75.80;;;;;;5122489;28;20032;-56
2022/01/19 20:28:23;;;;;;;11.07;5.53;;;28.70;75.60;;;;;;5121212;28;20020;-48
2022/01/19 20:30:51;;;;;;;115.60;15.65;;;28.80;76.30;;;;;;5121442;28;20027;-55
2022/01/19 20:33:18;;;;;;;59.55;10.85;;;28.80;74.60;;;;;;5121505;28;20078;-55
2022/01/19 20:35:46;;;;;;;34.08;8.00;;;28.90;75.00;;;;;;5121819;28;20024;-52
2022/01/19 20:38:24;;;;;;;15.15;6.03;;;29.00;74.60;;;;;;5122188;28;20020;-53
2022/01/19 20:40:52;;;;;;;11.25;5.47;;;29.10;74.00;;;;;;5122097;28;20043;-54
2022/01/19 20:43:20;;;;;;;9.93;4.90;;;29.20;73.60;;;;;;5121217;28;20020;-51
2022/01/19 20:45:48;;;;;;;12.90;5.65;;;29.30;73.40;;;;;;5121239;28;20020;-55
2022/01/19 20:48:15;;;;;;;42.88;9.68;;;29.30;73.60;;;;;;5101651;28;20058;-47
2022/01/19 20:50:42;;;;;;;85.80;16.50;;;29.30;73.50;;;;;;5101614;28;20074;-52
2022/01/19 20:53:08;;;;;;;42.97;10.07;;;29.40;73.40;;;;;;5101508;28;20016;-54
2022/01/19 20:55:37;;;;;;;30.15;7.88;;;29.40;72.70;;;;;;5099743;28;20031;-45
2022/01/19 20:58:04;;;;;;;36.92;9.02;;;29.40;73.10;;;;;;5090040;28;20029;-51
2022/01/19 21:00:31;;;;;;;24.17;7.03;;;29.40;72.90;;;;;;5081126;28;20103;-51
2022/01/19 21:03:01;;;;;;;18.00;6.03;;;29.40;72.70;;;;;;5082458;28;20016;-53
2022/01/19 21:05:27;;;;;;;13.85;6.28;;;29.50;72.60;;;;;;5081680;28;20052;-50
2022/01/19 21:07:54;;;;;;;11.75;5.80;;;29.50;73.00;;;;;;5080580;28;20305;-49
2022/01/19 21:10:21;;;;;;;12.50;5.82;;;29.50;73.00;;;;;;5080652;28;20033;-51
2022/01/19 21:12:49;;;;;;;7.95;5.78;;;29.60;73.40;;;;;;5094956;28;20087;-53
2022/01/19 21:15:17;;;;;;;10.35;5.25;;;29.60;73.10;;;;;;5101940;28;20086;-56
2022/01/19 21:17:44;;;;;;;8.55;5.60;;;29.60;72.50;;;;;;5076542;28;20025;-50
2022/01/19 21:20:20;;;;;;;11.10;5.18;;;29.60;73.00;;;;;;5090743;28;20036;-53
2022/01/19 21:22:47;;;;;;;10.63;5.63;;;29.60;72.50;;;;;;5089740;28;20112;-49
2022/01/19 21:25:16;;;;;;;10.00;5.60;;;29.60;72.40;;;;;;5101203;28;20073;-50
2022/01/19 21:27:43;;;;;;;10.55;5.65;;;29.70;72.10;;;;;;5101024;28;20024;-50
2022/01/19 21:30:16;;;;;;;11.07;5.70;;;29.60;72.60;;;;;;5099268;28;20367;-50
2022/01/19 21:32:44;;;;;;;10.20;5.60;;;29.70;73.00;;;;;;5087826;28;20039;-52
2022/01/19 21:35:11;;;;;;;12.77;5.68;;;29.70;72.50;;;;;;5086823;28;20020;-49
2022/01/19 21:37:38;;;;;;;9.50;5.80;;;29.70;72.80;;;;;;5087480;28;20072;-61
2022/01/19 21:40:12;;;;;;;12.77;5.88;;;29.70;73.00;;;;;;5087789;28;20020;-52
2022/01/19 21:42:39;;;;;;;12.43;5.82;;;29.70;72.60;;;;;;5087259;28;20066;-62
2022/01/19 21:45:07;;;;;;;10.82;5.72;;;29.70;72.20;;;;;;5087370;28;20075;-52
2022/01/19 21:47:33;;;;;;;9.50;5.93;;;29.70;72.30;;;;;;5086398;28;20090;-46
2022/01/19 21:50:02;;;;;;;11.00;5.30;;;29.70;72.40;;;;;;5087601;28;20017;-51
2022/01/19 21:52:32;;;;;;;6.40;4.78;;;29.70;72.20;;;;;;5085958;28;20254;-52
2022/01/19 21:54:58;;;;;;;7.75;5.72;;;29.60;72.70;;;;;;5087121;28;20197;-50
2022/01/19 21:57:25;;;;;;;15.10;6.22;;;29.70;73.20;;;;;;5086710;28;20020;-51
2022/01/19 21:59:52;;;;;;;13.27;6.30;;;29.70;73.10;;;;;;5086507;28;20087;-55
2022/01/19 22:02:20;;;;;;;14.48;6.15;;;29.70;72.80;;;;;;5086859;28;20024;-53
2022/01/19 22:04:47;;;;;;;18.48;5.55;;;29.70;72.90;;;;;;5087126;28;20282;-49
2022/01/19 22:07:14;;;;;;;16.30;6.05;;;29.70;73.10;;;;;;5086802;28;20024;-50
2022/01/19 22:09:41;;;;;;;15.45;5.93;;;29.60;73.30;;;;;;5086632;28;20319;-50
2022/01/19 22:12:08;;;;;;;10.10;5.90;;;29.60;73.50;;;;;;5086383;28;20066;-57
2022/01/19 22:14:35;;;;;;;10.18;5.88;;;29.70;73.80;;;;;;5086373;28;20056;-56
2022/01/19 22:17:03;;;;;;;18.80;6.35;;;29.60;73.70;;;;;;5083680;28;20051;-42
2022/01/19 22:19:32;;;;;;;18.88;6.47;;;29.60;73.80;;;;;;5071516;28;20044;-50
2022/01/19 22:25:20;;;;;;;20.50;6.47;;;29.60;74.00;;;;;;5066109;28;20076;-44
2022/01/19 22:27:47;;;;;;;19.38;7.38;;;29.60;74.10;;;;;;5081396;28;20013;-50
2022/01/19 22:30:16;;;;;;;18.60;7.88;;;29.60;74.40;;;;;;5066007;28;20036;-48
2022/01/19 22:32:43;;;;;;;22.83;10.02;;;29.50;74.50;;;;;;5065564;28;20021;-44
2022/01/19 22:35:10;;;;;;;28.67;11.43;;;29.50;74.60;;;;;;5065897;28;20020;-44
2022/01/19 22:37:37;;;;;;;20.42;10.82;;;29.50;75.00;;;;;;5065622;28;20020;-48
2022/01/19 22:40:06;;;;;;;27.85;10.65;;;29.50;75.20;;;;;;5065846;28;20029;-44
2022/01/19 22:42:33;;;;;;;27.38;10.65;;;29.50;75.20;;;;;;5063069;28;20017;-46
2022/01/19 22:44:59;;;;;;;29.33;10.25;;;29.50;76.00;;;;;;5071236;28;20024;-47
2022/01/19 22:47:26;;;;;;;25.27;8.85;;;29.50;77.60;;;;;;5078928;28;20150;-45
2022/01/19 22:49:53;;;;;;;32.55;8.52;;;29.50;77.90;;;;;;5067978;28;20021;-46
2022/01/19 22:52:21;;;;;;;28.73;9.23;;;29.50;77.60;;;;;;5070310;28;20069;-45
2022/01/19 22:54:48;;;;;;;41.40;13.93;;;29.50;77.30;;;;;;5074417;28;20036;-43
2022/01/19 22:57:15;;;;;;;84.97;52.13;;;29.50;77.10;;;;;;5073229;28;20013;-48
2022/01/19 23:00:19;;;;;;;87.68;50.95;;;29.50;76.80;;;;;;5078201;28;20027;-47
2022/01/19 23:02:49;;;;;;;142.38;81.63;;;29.50;76.40;;;;;;5081405;28;20052;-43
2022/01/19 23:05:16;;;;;;;128.40;75.53;;;29.50;76.20;;;;;;5075348;28;20032;-43
2022/01/19 23:08:09;;;;;;;86.47;49.00;;;29.40;75.80;;;;;;5074913;28;20035;-43
2022/01/19 23:10:35;;;;;;;64.45;35.55;;;29.40;75.90;;;;;;5076276;28;20103;-41
2022/01/19 23:13:02;;;;;;;37.92;21.63;;;29.40;75.30;;;;;;5082252;28;20031;-41
2022/01/19 23:15:29;;;;;;;33.38;16.25;;;29.40;75.40;;;;;;5076915;28;20170;-45
2022/01/19 23:17:56;;;;;;;19.65;12.35;;;29.30;75.50;;;;;;5057488;28;20036;-44
2022/01/19 23:20:26;;;;;;;20.58;9.13;;;29.30;75.60;;;;;;5074248;28;20045;-44
2022/01/19 23:22:54;;;;;;;16.70;8.75;;;29.30;76.10;;;;;;5058719;28;20029;-43
2022/01/19 23:25:21;;;;;;;17.35;7.25;;;29.30;76.30;;;;;;5068163;28;20025;-52
2022/01/19 23:27:48;;;;;;;11.80;7.70;;;29.30;76.60;;;;;;5081978;28;20563;-41
2022/01/19 23:30:17;;;;;;;15.68;9.57;;;29.20;76.50;;;;;;5079227;28;20028;-43
2022/01/19 23:32:52;;;;;;;15.57;9.85;;;29.20;76.70;;;;;;5067586;28;20025;-42
2022/01/19 23:35:22;;;;;;;14.55;8.63;;;29.20;76.80;;;;;;5064902;28;20078;-42
2022/01/19 23:38:12;;;;;;;15.15;7.85;;;29.20;77.10;;;;;;5064532;28;20025;-46
2022/01/19 23:48:53;;;;;;;9.90;5.90;;;29.10;77.70;;;;;;5063667;28;20071;-45
2022/01/19 23:51:20;;;;;;;10.52;5.82;;;29.10;77.00;;;;;;5064950;28;20088;-42
2022/01/19 23:53:46;;;;;;;15.43;5.95;;;29.10;77.00;;;;;;5071069;28;20028;-44
2022/01/19 23:56:18;;;;;;;9.60;5.68;;;29.10;77.10;;;;;;5074088;28;20069;-42
2022/01/19 23:58:45;;;;;;;6.22;5.63;;;29.00;76.90;;;;;;5083029;28;20308;-42
